Time;durP1;ratioP1;P1;durP2;ratioP2;P2;SDS_P1;SDS_P2;PMS_P1;PMS_P2;Temp;Humidity;BMP_temperature;BMP_pressure;BME280_temperature;BME280_humidity;BME280_pressure;Samples;Min_cycle;Max_cycle;Signal;HPM_P1;HPM_P2
2023/03/21 00:00:44;;;;;;;36.28;17.92;;;;;;;;;;5073986;28;20489;-75
2023/03/21 00:03:11;;;;;;;40.08;18.75;;;;;;;;;;5073927;28;20052;-75
2023/03/21 00:05:41;;;;;;;35.72;18.45;;;;;;;;;;5056143;28;20049;-75
2023/03/21 00:08:07;;;;;;;38.30;18.33;;;;;;;;;;5056095;28;20117;-75
2023/03/21 00:10:33;;;;;;;39.05;17.92;;;;;;;;;;5055114;28;20497;-75
2023/03/21 00:12:59;;;;;;;34.33;16.95;;;;;;;;;;5073610;28;20145;-75
2023/03/21 00:15:26;;;;;;;39.92;18.00;;;;;;;;;;5071135;28;20041;-75
2023/03/21 00:18:02;;;;;;;36.40;16.88;;;;;;;;;;5055519;28;20053;-74
2023/03/21 00:20:36;;;;;;;36.13;17.70;;;;;;;;;;5055821;28;20564;-75
2023/03/21 00:23:03;;;;;;;34.03;17.48;;;;;;;;;;5055731;28;20036;-75
2023/03/21 00:25:31;;;;;;;34.55;17.38;;;;;;;;;;5073444;28;20056;-74
2023/03/21 00:27:57;;;;;;;35.42;17.05;;;;;;;;;;5054202;28;20052;-74
2023/03/21 00:30:24;;;;;;;35.72;16.67;;;;;;;;;;5073626;28;20071;-73
2023/03/21 00:32:50;;;;;;;32.45;16.08;;;;;;;;;;5073564;28;20452;-74
2023/03/21 00:35:16;;;;;;;36.92;16.40;;;;;;;;;;5073521;28;20037;-73
2023/03/21 00:37:42;;;;;;;31.52;14.93;;;;;;;;;;5065452;28;20099;-73
2023/03/21 00:40:09;;;;;;;35.28;16.05;;;;;;;;;;5053150;28;20440;-74
2023/03/21 00:42:36;;;;;;;35.38;15.90;;;;;;;;;;5053416;28;20048;-74
2023/03/21 00:45:02;;;;;;;37.03;16.70;;;;;;;;;;5051776;28;20048;-74
2023/03/21 00:47:28;;;;;;;40.38;16.08;;;;;;;;;;5043414;28;20049;-74
2023/03/21 00:49:54;;;;;;;39.65;16.33;;;;;;;;;;5053308;28;20118;-74
2023/03/21 00:52:21;;;;;;;49.97;17.88;;;;;;;;;;5053349;28;20045;-74
2023/03/21 00:54:47;;;;;;;64.45;20.23;;;;;;;;;;5035421;28;20397;-74
2023/03/21 00:57:13;;;;;;;77.75;22.02;;;;;;;;;;5053411;28;20037;-74
2023/03/21 00:59:39;;;;;;;86.15;22.83;;;;;;;;;;5035036;28;20045;-74
2023/03/21 01:02:13;;;;;;;81.75;22.80;;;;;;;;;;5068445;28;20045;-74
2023/03/21 01:04:39;;;;;;;78.78;22.85;;;;;;;;;;5067095;28;20374;-74
2023/03/21 01:07:05;;;;;;;123.13;24.92;;;;;;;;;;5051038;28;20098;-74
2023/03/21 01:09:31;;;;;;;137.63;26.38;;;;;;;;;;5067616;28;20057;-74
2023/03/21 01:11:57;;;;;;;124.30;25.02;;;;;;;;;;5053226;28;20078;-74
2023/03/21 01:14:24;;;;;;;102.47;25.48;;;;;;;;;;5051293;28;20049;-74
2023/03/21 01:16:53;;;;;;;112.32;25.63;;;;;;;;;;5052875;28;20500;-73
2023/03/21 01:19:20;;;;;;;171.57;28.17;;;;;;;;;;5067935;28;20048;-74
2023/03/21 01:21:46;;;;;;;169.60;27.90;;;;;;;;;;5034727;28;20044;-74
2023/03/21 01:24:12;;;;;;;149.15;27.95;;;;;;;;;;5052421;28;20044;-74
2023/03/21 01:26:39;;;;;;;126.22;27.70;;;;;;;;;;5034829;28;20496;-74
2023/03/21 01:29:05;;;;;;;119.05;27.33;;;;;;;;;;5067991;28;20041;-74
2023/03/21 01:31:31;;;;;;;109.57;25.85;;;;;;;;;;5052705;28;20448;-74
2023/03/21 01:33:57;;;;;;;111.70;27.73;;;;;;;;;;5052310;28;20385;-74
2023/03/21 01:36:25;;;;;;;122.72;29.05;;;;;;;;;;5034706;28;20045;-74
2023/03/21 01:38:51;;;;;;;135.57;28.23;;;;;;;;;;5034354;28;20041;-74
2023/03/21 01:41:28;;;;;;;95.85;26.15;;;;;;;;;;5034504;28;20053;-74
2023/03/21 01:43:54;;;;;;;112.72;27.15;;;;;;;;;;5052110;28;20036;-73
2023/03/21 01:46:34;;;;;;;73.68;23.38;;;;;;;;;;5052738;28;20131;-74
2023/03/21 01:49:00;;;;;;;66.10;22.10;;;;;;;;;;5052058;28;20045;-73
2023/03/21 01:51:27;;;;;;;63.88;21.95;;;;;;;;;;5051246;28;20055;-74
2023/03/21 01:53:54;;;;;;;56.90;20.40;;;;;;;;;;5034356;28;20131;-73
2023/03/21 01:56:24;;;;;;;61.30;20.88;;;;;;;;;;5052683;28;20095;-74
2023/03/21 01:58:51;;;;;;;57.20;19.52;;;;;;;;;;5052168;28;20048;-73
2023/03/21 02:01:17;;;;;;;59.40;20.00;;;;;;;;;;5051012;28;20048;-74
2023/03/21 02:03:51;;;;;;;67.38;21.60;;;;;;;;;;5050366;28;20040;-74
2023/03/21 02:06:29;;;;;;;65.18;21.35;;;;;;;;;;5052086;28;20049;-74
2023/03/21 02:08:55;;;;;;;62.95;22.73;;;;;;;;;;5033744;28;20056;-74
2023/03/21 02:11:22;;;;;;;72.82;23.13;;;;;;;;;;5052340;28;20374;-74
2023/03/21 02:13:48;;;;;;;78.47;22.58;;;;;;;;;;5052103;28;20430;-74
2023/03/21 02:16:21;;;;;;;73.28;23.55;;;;;;;;;;5050967;28;20063;-74
2023/03/21 02:18:56;;;;;;;73.78;21.80;;;;;;;;;;5051961;28;20041;-74
2023/03/21 02:21:31;;;;;;;57.97;22.23;;;;;;;;;;5052450;28;20067;-74
2023/03/21 02:24:09;;;;;;;58.42;21.65;;;;;;;;;;5034038;28;20102;-74
2023/03/21 02:26:54;;;;;;;57.28;21.80;;;;;;;;;;5052119;28;20511;-74
2023/03/21 02:29:29;;;;;;;63.22;22.15;;;;;;;;;;5051731;28;20145;-74
2023/03/21 02:31:58;;;;;;;58.40;23.10;;;;;;;;;;5052134;28;20072;-74
2023/03/21 02:34:36;;;;;;;56.85;22.00;;;;;;;;;;5053413;28;20279;-74
2023/03/21 02:37:08;;;;;;;59.05;23.33;;;;;;;;;;5054575;28;20434;-74
2023/03/21 02:39:42;;;;;;;51.83;21.63;;;;;;;;;;5037746;28;20132;-74
2023/03/21 02:42:08;;;;;;;59.08;22.58;;;;;;;;;;5055444;28;20056;-74
2023/03/21 02:44:37;;;;;;;50.95;21.70;;;;;;;;;;5055421;28;20041;-74
2023/03/21 02:47:07;;;;;;;46.88;21.77;;;;;;;;;;5038029;28;20066;-73
2023/03/21 02:49:54;;;;;;;50.13;22.08;;;;;;;;;;5055465;28;20130;-74
2023/03/21 02:52:20;;;;;;;;;;;;;;;;;;5055877;28;20492;-74
2023/03/21 02:54:47;;;;;;;53.22;23.80;;;;;;;;;;5055735;28;19928;-74
2023/03/21 02:57:15;;;;;;;51.65;23.02;;;;;;;;;;5037586;28;20144;-74
2023/03/21 02:59:42;;;;;;;47.60;22.67;;;;;;;;;;5037419;28;20405;-74
2023/03/21 03:02:08;;;;;;;44.00;22.10;;;;;;;;;;5037306;28;20459;-74
2023/03/21 03:04:34;;;;;;;40.85;21.52;;;;;;;;;;5037114;28;20520;-74
2023/03/21 03:07:06;;;;;;;42.40;21.25;;;;;;;;;;5055285;28;20041;-74
2023/03/21 03:09:42;;;;;;;40.42;20.85;;;;;;;;;;5054988;28;21075;-74
2023/03/21 03:12:16;;;;;;;37.25;21.38;;;;;;;;;;5055242;28;20049;-74
2023/03/21 03:14:42;;;;;;;36.67;20.77;;;;;;;;;;5054970;28;20041;-74
2023/03/21 03:17:23;;;;;;;38.10;20.58;;;;;;;;;;5021123;28;20039;-74
2023/03/21 03:20:10;;;;;;;34.95;19.67;;;;;;;;;;5020343;28;20128;-74
2023/03/21 03:22:46;;;;;;;33.88;19.77;;;;;;;;;;5054804;28;20045;-74
2023/03/21 03:25:14;;;;;;;33.70;20.02;;;;;;;;;;5054843;28;20044;-74
2023/03/21 03:27:43;;;;;;;33.88;20.17;;;;;;;;;;5036629;28;20049;-73
2023/03/21 03:30:11;;;;;;;33.30;19.95;;;;;;;;;;5054598;28;20041;-73
2023/03/21 03:32:45;;;;;;;31.17;19.25;;;;;;;;;;5020183;28;20049;-74
2023/03/21 03:35:13;;;;;;;30.80;18.80;;;;;;;;;;5054778;28;20037;-74
2023/03/21 03:37:40;;;;;;;31.38;19.23;;;;;;;;;;5036671;28;20041;-74
2023/03/21 03:40:08;;;;;;;30.13;19.60;;;;;;;;;;5036783;28;20091;-74
2023/03/21 03:42:35;;;;;;;30.88;19.05;;;;;;;;;;5036527;28;20087;-74
2023/03/21 03:45:03;;;;;;;30.95;19.45;;;;;;;;;;5053580;28;20121;-74
2023/03/21 03:47:34;;;;;;;32.33;19.77;;;;;;;;;;5036021;28;20104;-74
2023/03/21 03:50:00;;;;;;;30.85;19.05;;;;;;;;;;5054579;28;20045;-74
2023/03/21 03:52:29;;;;;;;30.25;18.73;;;;;;;;;;5036579;28;20047;-74
2023/03/21 03:54:55;;;;;;;32.10;18.45;;;;;;;;;;5054359;28;20049;-74
2023/03/21 03:57:21;;;;;;;30.13;18.05;;;;;;;;;;5036405;28;20120;-74
2023/03/21 03:59:47;;;;;;;30.23;18.95;;;;;;;;;;5033805;28;20632;-74
2023/03/21 04:02:14;;;;;;;28.88;17.90;;;;;;;;;;5054266;28;20044;-73
2023/03/21 04:04:40;;;;;;;30.10;17.88;;;;;;;;;;5036219;28;20194;-74
2023/03/21 04:07:07;;;;;;;31.63;18.20;;;;;;;;;;5036591;28;20064;-74
2023/03/21 04:09:33;;;;;;;32.50;18.90;;;;;;;;;;5053556;28;20060;-74
2023/03/21 04:11:59;;;;;;;33.05;18.05;;;;;;;;;;5019506;28;20114;-74
2023/03/21 04:14:26;;;;;;;28.08;17.17;;;;;;;;;;5053457;28;20114;-74
2023/03/21 04:16:53;;;;;;;29.63;17.45;;;;;;;;;;5053928;28;20048;-74
2023/03/21 04:19:19;;;;;;;33.55;18.85;;;;;;;;;;5018873;28;20136;-74
2023/03/21 04:21:46;;;;;;;30.67;17.83;;;;;;;;;;5034817;28;20045;-74
2023/03/21 04:24:12;;;;;;;33.17;17.60;;;;;;;;;;5035588;28;20081;-74
2023/03/21 04:26:38;;;;;;;32.80;18.00;;;;;;;;;;5019552;28;20142;-74
2023/03/21 04:29:05;;;;;;;31.00;17.40;;;;;;;;;;5035616;28;20048;-74
2023/03/21 04:31:33;;;;;;;29.52;16.10;;;;;;;;;;5053958;28;20100;-74
2023/03/21 04:34:04;;;;;;;29.40;17.33;;;;;;;;;;5035420;28;20051;-74
2023/03/21 04:36:37;;;;;;;30.73;15.70;;;;;;;;;;5053649;28;20106;-74
2023/03/21 04:39:04;;;;;;;28.15;15.68;;;;;;;;;;5071689;28;20090;-74
2023/03/21 04:41:31;;;;;;;28.60;15.10;;;;;;;;;;5037575;28;20051;-74
2023/03/21 04:43:57;;;;;;;28.25;16.10;;;;;;;;;;5054973;28;20044;-74
2023/03/21 04:46:23;;;;;;;28.63;15.38;;;;;;;;;;5055491;28;20135;-74
2023/03/21 04:48:49;;;;;;;28.85;15.15;;;;;;;;;;5055347;28;20459;-73
2023/03/21 04:51:16;;;;;;;26.95;14.57;;;;;;;;;;5054263;28;20045;-73
2023/03/21 04:53:44;;;;;;;26.90;14.70;;;;;;;;;;5052790;28;20076;-74
2023/03/21 04:56:11;;;;;;;32.20;15.07;;;;;;;;;;5054726;28;20186;-74
2023/03/21 04:58:39;;;;;;;31.60;15.15;;;;;;;;;;5055104;28;20108;-74
2023/03/21 05:01:05;;;;;;;28.23;14.38;;;;;;;;;;5072934;28;20048;-74
2023/03/21 05:03:33;;;;;;;29.77;13.80;;;;;;;;;;5072033;28;20044;-74
2023/03/21 05:06:02;;;;;;;27.92;14.70;;;;;;;;;;5054015;28;20044;-74
2023/03/21 05:08:28;;;;;;;26.25;14.45;;;;;;;;;;5054508;28;20056;-74
2023/03/21 05:10:54;;;;;;;29.48;14.48;;;;;;;;;;5054804;28;20057;-74
2023/03/21 05:13:20;;;;;;;28.00;15.02;;;;;;;;;;5052195;28;20049;-74
2023/03/21 05:15:46;;;;;;;25.63;14.75;;;;;;;;;;5069836;28;20397;-74
2023/03/21 05:18:12;;;;;;;33.13;15.52;;;;;;;;;;5071590;28;20045;-73
2023/03/21 05:20:42;;;;;;;28.10;15.73;;;;;;;;;;5054373;28;20055;-74
2023/03/21 05:23:11;;;;;;;28.95;15.18;;;;;;;;;;5071633;28;20041;-74
2023/03/21 05:25:38;;;;;;;31.15;15.15;;;;;;;;;;5072010;28;20067;-74
2023/03/21 05:28:05;;;;;;;29.42;15.20;;;;;;;;;;5072568;28;20048;-74
2023/03/21 05:30:31;;;;;;;35.10;17.48;;;;;;;;;;5072666;28;20040;-74
2023/03/21 05:32:58;;;;;;;28.85;15.85;;;;;;;;;;5037987;28;20058;-74
2023/03/21 05:35:24;;;;;;;35.15;17.40;;;;;;;;;;5072665;28;20033;-74
2023/03/21 05:37:50;;;;;;;30.98;15.98;;;;;;;;;;5063439;28;20059;-74
2023/03/21 05:40:16;;;;;;;28.33;15.27;;;;;;;;;;5050515;28;20572;-74
2023/03/21 05:42:42;;;;;;;33.40;16.65;;;;;;;;;;5049575;28;20493;-74
2023/03/21 05:45:09;;;;;;;32.63;16.77;;;;;;;;;;5052445;28;20094;-74
2023/03/21 05:47:35;;;;;;;32.38;16.85;;;;;;;;;;5034550;28;20394;-74
2023/03/21 05:50:01;;;;;;;31.70;15.48;;;;;;;;;;5052031;28;20045;-74
2023/03/21 05:52:28;;;;;;;33.47;16.27;;;;;;;;;;5052031;28;20045;-74
2023/03/21 05:54:54;;;;;;;34.53;16.38;;;;;;;;;;5049924;28;20053;-74
2023/03/21 05:57:20;;;;;;;30.77;15.68;;;;;;;;;;5032757;28;20397;-74
2023/03/21 05:59:46;;;;;;;30.50;15.70;;;;;;;;;;5033896;28;20048;-74
2023/03/21 06:02:12;;;;;;;27.45;15.25;;;;;;;;;;5034194;28;20049;-74
2023/03/21 06:04:39;;;;;;;25.83;14.90;;;;;;;;;;5033912;28;20052;-74
2023/03/21 06:07:05;;;;;;;30.42;14.95;;;;;;;;;;5034493;28;20088;-74
2023/03/21 06:09:32;;;;;;;26.33;14.50;;;;;;;;;;5035778;28;20057;-74
2023/03/21 06:11:58;;;;;;;25.02;14.73;;;;;;;;;;5038289;28;20053;-74
2023/03/21 06:14:24;;;;;;;24.45;13.50;;;;;;;;;;5056080;28;20037;-74
2023/03/21 06:16:52;;;;;;;21.33;12.77;;;;;;;;;;5056311;28;20052;-74
2023/03/21 06:19:19;;;;;;;25.95;13.82;;;;;;;;;;5055870;28;20445;-74
2023/03/21 06:21:45;;;;;;;22.85;13.27;;;;;;;;;;5055765;28;20425;-74
2023/03/21 06:24:11;;;;;;;22.60;13.63;;;;;;;;;;5037843;28;20088;-74
2023/03/21 06:26:37;;;;;;;20.92;12.93;;;;;;;;;;5055748;28;20129;-74
2023/03/21 06:29:03;;;;;;;22.23;13.02;;;;;;;;;;5055502;28;20124;-74
2023/03/21 06:31:30;;;;;;;20.35;12.13;;;;;;;;;;5037820;28;20045;-74
2023/03/21 06:33:56;;;;;;;23.08;13.13;;;;;;;;;;5055517;28;20052;-74
2023/03/21 06:36:22;;;;;;;21.20;12.68;;;;;;;;;;5038211;28;20045;-73
2023/03/21 06:38:48;;;;;;;18.80;12.23;;;;;;;;;;5071776;28;20044;-74
2023/03/21 06:41:15;;;;;;;20.92;12.45;;;;;;;;;;5057207;28;20045;-74
2023/03/21 06:43:41;;;;;;;21.67;13.48;;;;;;;;;;5056802;28;20075;-74
2023/03/21 06:46:08;;;;;;;22.88;13.27;;;;;;;;;;5054558;28;20048;-74
2023/03/21 06:48:34;;;;;;;21.88;13.60;;;;;;;;;;5075294;28;20036;-74
2023/03/21 06:51:00;;;;;;;23.73;14.15;;;;;;;;;;5074932;28;20048;-74
2023/03/21 06:53:26;;;;;;;24.55;14.00;;;;;;;;;;5057127;28;20374;-74
2023/03/21 06:55:52;;;;;;;22.05;12.82;;;;;;;;;;5057085;28;20079;-74
2023/03/21 06:58:19;;;;;;;23.83;14.25;;;;;;;;;;5054533;28;20052;-75
2023/03/21 07:00:45;;;;;;;23.88;14.45;;;;;;;;;;5053855;28;20457;-74
2023/03/21 07:03:11;;;;;;;24.80;14.45;;;;;;;;;;5055650;28;20052;-74
2023/03/21 07:05:38;;;;;;;24.15;14.27;;;;;;;;;;5074976;28;20135;-74
2023/03/21 07:08:05;;;;;;;24.08;14.02;;;;;;;;;;5056746;28;20044;-75
2023/03/21 07:10:31;;;;;;;24.02;14.07;;;;;;;;;;5056582;28;20401;-75
2023/03/21 07:13:00;;;;;;;24.65;14.30;;;;;;;;;;5074394;28;20763;-74
2023/03/21 07:15:26;;;;;;;24.98;14.80;;;;;;;;;;5074304;28;20048;-75
2023/03/21 07:17:53;;;;;;;22.27;14.23;;;;;;;;;;5074606;28;20147;-75
2023/03/21 07:20:19;;;;;;;23.00;14.13;;;;;;;;;;5056244;28;20484;-75
2023/03/21 07:22:45;;;;;;;23.35;14.43;;;;;;;;;;5056560;28;20078;-75
2023/03/21 07:25:11;;;;;;;24.65;14.95;;;;;;;;;;5074695;28;20045;-75
2023/03/21 07:27:37;;;;;;;27.77;14.82;;;;;;;;;;5074205;28;20045;-75
2023/03/21 07:30:04;;;;;;;27.17;15.63;;;;;;;;;;5074825;28;20040;-75
2023/03/21 07:32:34;;;;;;;24.23;14.18;;;;;;;;;;5056499;28;20055;-75
2023/03/21 07:35:00;;;;;;;23.80;14.38;;;;;;;;;;5056216;28;20059;-75
2023/03/21 07:37:26;;;;;;;24.45;13.57;;;;;;;;;;5068901;28;20056;-75
2023/03/21 07:39:52;;;;;;;23.60;14.45;;;;;;;;;;5036320;28;20110;-75
2023/03/21 07:42:19;;;;;;;20.38;13.05;;;;;;;;;;5036241;28;20395;-75
2023/03/21 07:44:45;;;;;;;22.58;13.40;;;;;;;;;;5054074;28;20041;-75
2023/03/21 07:47:11;;;;;;;19.73;12.38;;;;;;;;;;5053901;28;20409;-75
2023/03/21 07:49:37;;;;;;;23.15;13.63;;;;;;;;;;5051928;28;20052;-75
2023/03/21 07:52:04;;;;;;;19.05;11.95;;;;;;;;;;5036279;28;20045;-75
2023/03/21 07:54:30;;;;;;;17.48;11.75;;;;;;;;;;5053986;28;20041;-75
2023/03/21 07:56:56;;;;;;;17.17;11.13;;;;;;;;;;5036388;28;20059;-75
2023/03/21 07:59:22;;;;;;;16.52;11.45;;;;;;;;;;5033132;28;20041;-75
2023/03/21 08:01:48;;;;;;;17.77;11.82;;;;;;;;;;5036218;28;20131;-76
2023/03/21 08:04:14;;;;;;;18.70;11.98;;;;;;;;;;5053119;28;20494;-76
2023/03/21 08:06:40;;;;;;;16.33;10.75;;;;;;;;;;5036034;28;20053;-76
2023/03/21 08:09:07;;;;;;;16.67;10.95;;;;;;;;;;5053611;28;20131;-76
2023/03/21 08:11:33;;;;;;;16.60;11.55;;;;;;;;;;5018135;28;20092;-76
2023/03/21 08:13:59;;;;;;;13.93;9.98;;;;;;;;;;5035441;28;20469;-76
2023/03/21 08:16:26;;;;;;;13.73;9.65;;;;;;;;;;5053813;28;20041;-75
2023/03/21 08:18:52;;;;;;;14.00;9.80;;;;;;;;;;5053163;28;20041;-76
2023/03/21 08:21:18;;;;;;;14.93;9.90;;;;;;;;;;5052702;28;20052;-76
2023/03/21 08:23:44;;;;;;;13.68;9.68;;;;;;;;;;5051421;28;20045;-76
2023/03/21 08:26:10;;;;;;;13.77;9.80;;;;;;;;;;5052350;28;20049;-76
2023/03/21 08:28:38;;;;;;;12.52;9.05;;;;;;;;;;5053454;28;20166;-76
2023/03/21 08:31:08;;;;;;;12.70;9.10;;;;;;;;;;5035916;28;20402;-76
2023/03/21 08:33:34;;;;;;;13.50;8.90;;;;;;;;;;5053113;28;20445;-75
2023/03/21 08:36:00;;;;;;;13.35;9.70;;;;;;;;;;5035751;28;20049;-75
2023/03/21 08:38:32;;;;;;;11.52;8.23;;;;;;;;;;5067023;28;20060;-75
2023/03/21 08:40:59;;;;;;;11.52;8.70;;;;;;;;;;5055489;28;20057;-75
2023/03/21 08:43:25;;;;;;;12.48;8.73;;;;;;;;;;5073666;28;20052;-76
2023/03/21 08:45:52;;;;;;;12.15;8.77;;;;;;;;;;5073610;28;20461;-76
2023/03/21 08:48:18;;;;;;;11.10;8.60;;;;;;;;;;5038757;28;20055;-76
2023/03/21 08:50:44;;;;;;;10.98;8.30;;;;;;;;;;5055556;28;20052;-75
2023/03/21 08:53:10;;;;;;;11.98;8.50;;;;;;;;;;5054994;28;20041;-75
2023/03/21 08:55:37;;;;;;;9.68;7.85;;;;;;;;;;5055305;28;20044;-76
2023/03/21 08:58:03;;;;;;;11.02;7.65;;;;;;;;;;5073013;28;20097;-75
2023/03/21 09:00:29;;;;;;;10.05;7.13;;;;;;;;;;5052504;28;20128;-75
2023/03/21 09:02:57;;;;;;;8.70;7.10;;;;;;;;;;5055345;28;20079;-75
2023/03/21 09:05:25;;;;;;;11.52;6.97;;;;;;;;;;5055135;28;20048;-75
2023/03/21 09:07:51;;;;;;;11.38;7.00;;;;;;;;;;5073263;28;20048;-75
2023/03/21 09:10:18;;;;;;;10.55;7.78;;;;;;;;;;5072705;28;20170;-75
2023/03/21 09:12:44;;;;;;;10.60;7.50;;;;;;;;;;5054879;28;20145;-75
2023/03/21 09:15:11;;;;;;;12.70;8.02;;;;;;;;;;5073187;28;20350;-75
2023/03/21 09:17:41;;;;;;;12.50;8.20;;;;;;;;;;5072987;28;20048;-75
2023/03/21 09:20:10;;;;;;;14.10;8.00;;;;;;;;;;5055343;28;20393;-75
2023/03/21 09:22:37;;;;;;;11.93;8.18;;;;;;;;;;5055109;28;20519;-75
2023/03/21 09:25:06;;;;;;;12.38;8.60;;;;;;;;;;5054644;28;20090;-75
2023/03/21 09:27:32;;;;;;;16.33;9.25;;;;;;;;;;5070788;28;20545;-76
2023/03/21 09:29:59;;;;;;;14.45;9.60;;;;;;;;;;5054501;28;20041;-75
2023/03/21 09:32:27;;;;;;;14.48;10.85;;;;;;;;;;5054485;28;20055;-75
2023/03/21 09:34:54;;;;;;;15.88;11.50;;;;;;;;;;5038151;28;20049;-75
2023/03/21 09:37:21;;;;;;;17.48;12.18;;;;;;;;;;5048933;28;20052;-75
2023/03/21 09:39:49;;;;;;;18.77;12.30;;;;;;;;;;5033990;28;20041;-75
2023/03/21 09:42:29;;;;;;;20.67;13.90;;;;;;;;;;5052869;28;20115;-75
2023/03/21 09:44:56;;;;;;;19.25;13.10;;;;;;;;;;5034826;28;20136;-75
2023/03/21 09:47:28;;;;;;;16.40;12.00;;;;;;;;;;5051976;28;20051;-75
2023/03/21 09:50:30;;;;;;;18.95;13.68;;;;;;;;;;5032909;28;20053;-75
2023/03/21 09:52:59;;;;;;;17.55;13.40;;;;;;;;;;4971303;28;20053;-75
2023/03/21 09:55:33;;;;;;;18.35;13.10;;;;;;;;;;5004350;28;20057;-75
2023/03/21 09:58:03;;;;;;;18.73;13.75;;;;;;;;;;5034529;28;20131;-75
2023/03/21 10:00:38;;;;;;;20.95;14.25;;;;;;;;;;5052304;28;20375;-75
2023/03/21 10:03:14;;;;;;;18.30;13.93;;;;;;;;;;5052329;28;20053;-75
2023/03/21 10:05:43;;;;;;;19.58;15.30;;;;;;;;;;5052463;28;20051;-75
2023/03/21 10:08:09;;;;;;;20.63;15.52;;;;;;;;;;5052072;28;20049;-75
2023/03/21 10:10:37;;;;;;;22.80;14.77;;;;;;;;;;5052323;28;20068;-75
2023/03/21 10:13:05;;;;;;;21.17;15.43;;;;;;;;;;5052515;28;20076;-75
2023/03/21 10:15:31;;;;;;;21.23;15.48;;;;;;;;;;5052255;28;20037;-75
2023/03/21 10:17:57;;;;;;;21.02;15.02;;;;;;;;;;5052412;28;20056;-75
2023/03/21 10:20:33;;;;;;;24.02;16.30;;;;;;;;;;5052448;28;20090;-75
2023/03/21 10:23:00;;;;;;;26.30;17.30;;;;;;;;;;5034292;28;20059;-76
2023/03/21 10:25:32;;;;;;;27.60;18.23;;;;;;;;;;5052298;28;20052;-75
2023/03/21 10:27:59;;;;;;;28.73;18.55;;;;;;;;;;5049882;28;20052;-76
2023/03/21 10:30:28;;;;;;;26.90;18.73;;;;;;;;;;5051750;28;20044;-76
2023/03/21 10:32:55;;;;;;;33.13;19.30;;;;;;;;;;5033465;28;20206;-76
2023/03/21 10:35:21;;;;;;;29.95;19.90;;;;;;;;;;5050058;28;20138;-75
2023/03/21 10:37:48;;;;;;;32.58;19.55;;;;;;;;;;5051697;28;20045;-76
2023/03/21 10:40:14;;;;;;;30.23;19.67;;;;;;;;;;5033730;28;20055;-76
2023/03/21 10:42:41;;;;;;;26.65;18.95;;;;;;;;;;5052061;28;20049;-76
2023/03/21 10:45:15;;;;;;;27.13;17.80;;;;;;;;;;5014813;28;20045;-76
2023/03/21 10:47:41;;;;;;;21.58;15.85;;;;;;;;;;5017998;28;20355;-76
2023/03/21 10:50:16;;;;;;;24.08;15.88;;;;;;;;;;5033463;28;20051;-75
2023/03/21 10:52:46;;;;;;;22.35;15.90;;;;;;;;;;5050071;28;20406;-76
2023/03/21 10:55:23;;;;;;;20.85;15.70;;;;;;;;;;5052655;28;20367;-75
2023/03/21 10:57:52;;;;;;;27.42;16.20;;;;;;;;;;5055327;28;20505;-76
2023/03/21 11:00:21;;;;;;;27.25;16.38;;;;;;;;;;5055515;28;20128;-76
2023/03/21 11:02:48;;;;;;;26.05;17.23;;;;;;;;;;5037259;28;20096;-76
2023/03/21 11:05:21;;;;;;;25.42;16.90;;;;;;;;;;5055164;28;20041;-75
2023/03/21 11:07:47;;;;;;;27.10;16.98;;;;;;;;;;5037687;28;20549;-76
2023/03/21 11:10:27;;;;;;;20.27;14.52;;;;;;;;;;5054527;28;20049;-75
2023/03/21 11:12:55;;;;;;;22.92;15.23;;;;;;;;;;5036918;28;20094;-75
2023/03/21 11:15:26;;;;;;;24.77;15.50;;;;;;;;;;5055074;28;20386;-76
2023/03/21 11:17:52;;;;;;;21.42;14.20;;;;;;;;;;5036844;28;20080;-76
2023/03/21 11:20:19;;;;;;;23.17;13.52;;;;;;;;;;5054390;28;20053;-76
2023/03/21 11:22:45;;;;;;;22.27;12.98;;;;;;;;;;5053330;28;20048;-76
2023/03/21 11:25:22;;;;;;;18.83;11.57;;;;;;;;;;5037281;28;20055;-75
2023/03/21 11:27:55;;;;;;;18.65;11.63;;;;;;;;;;5036625;28;20049;-75
2023/03/21 11:30:23;;;;;;;16.25;11.05;;;;;;;;;;5035747;28;20047;-75
2023/03/21 11:32:56;;;;;;;17.10;11.20;;;;;;;;;;5035627;28;20573;-75
2023/03/21 11:35:28;;;;;;;16.65;10.95;;;;;;;;;;5054324;28;20102;-75
2023/03/21 11:37:55;;;;;;;14.95;9.80;;;;;;;;;;5028960;28;20123;-76
2023/03/21 11:40:23;;;;;;;17.48;9.82;;;;;;;;;;5056429;28;20057;-76
2023/03/21 11:42:54;;;;;;;15.98;10.07;;;;;;;;;;5055583;28;20048;-76
2023/03/21 11:45:21;;;;;;;16.05;9.52;;;;;;;;;;5052813;28;20050;-76
2023/03/21 11:47:49;;;;;;;15.35;9.88;;;;;;;;;;5037664;28;20159;-75
2023/03/21 11:50:18;;;;;;;15.88;9.48;;;;;;;;;;5056221;28;20047;-75
2023/03/21 11:52:47;;;;;;;13.68;9.10;;;;;;;;;;5074461;28;20045;-75
2023/03/21 11:55:32;;;;;;;15.27;9.40;;;;;;;;;;5056422;28;20094;-75
2023/03/21 11:58:00;;;;;;;16.05;9.32;;;;;;;;;;5074199;28;20044;-75
2023/03/21 12:00:34;;;;;;;15.57;9.20;;;;;;;;;;5073883;28;20127;-75
2023/03/21 12:03:18;;;;;;;19.25;9.85;;;;;;;;;;5073903;28;20052;-75
2023/03/21 12:05:52;;;;;;;17.27;9.18;;;;;;;;;;5074246;28;20044;-75
2023/03/21 12:08:35;;;;;;;15.20;9.55;;;;;;;;;;5038673;28;20123;-75
2023/03/21 12:11:29;;;;;;;17.45;9.45;;;;;;;;;;5054469;28;20058;-75
2023/03/21 12:14:03;;;;;;;14.25;8.90;;;;;;;;;;5073119;28;20040;-75
2023/03/21 12:16:35;;;;;;;16.08;9.02;;;;;;;;;;5074207;28;20048;-75
2023/03/21 12:19:01;;;;;;;15.07;9.43;;;;;;;;;;5039188;28;20441;-75
2023/03/21 12:21:34;;;;;;;15.32;9.60;;;;;;;;;;5074046;28;20056;-75
2023/03/21 12:24:15;;;;;;;15.52;9.25;;;;;;;;;;5073788;28;20051;-75
2023/03/21 12:26:52;;;;;;;19.45;9.27;;;;;;;;;;5074139;28;20044;-75
2023/03/21 12:29:37;;;;;;;14.50;8.40;;;;;;;;;;5073572;28;20041;-75
2023/03/21 12:32:14;;;;;;;17.08;9.23;;;;;;;;;;5055283;28;20067;-75
2023/03/21 12:34:43;;;;;;;15.38;9.15;;;;;;;;;;5073482;28;20080;-75
2023/03/21 12:37:29;;;;;;;15.77;9.20;;;;;;;;;;5070285;28;20051;-75
2023/03/21 12:39:55;;;;;;;;;;;;;;;;;;5025578;28;20060;-75
2023/03/21 12:42:27;;;;;;;12.82;8.75;;;;;;;;;;5019169;28;19920;-75
2023/03/21 12:44:56;;;;;;;14.95;8.93;;;;;;;;;;5053402;28;20086;-75
2023/03/21 12:47:24;;;;;;;14.02;9.02;;;;;;;;;;5053338;28;20051;-75
2023/03/21 12:50:01;;;;;;;15.93;8.55;;;;;;;;;;5019073;28;20044;-75
2023/03/21 12:52:36;;;;;;;12.80;8.48;;;;;;;;;;5053219;28;20041;-75
2023/03/21 12:55:22;;;;;;;20.02;9.30;;;;;;;;;;5018756;28;20049;-75
2023/03/21 12:57:48;;;;;;;15.35;8.95;;;;;;;;;;5052879;28;20182;-75
2023/03/21 13:00:19;;;;;;;15.25;8.55;;;;;;;;;;5053291;28;20071;-75
2023/03/21 13:02:58;;;;;;;14.20;9.02;;;;;;;;;;5035461;28;20118;-75
2023/03/21 13:05:28;;;;;;;17.10;8.75;;;;;;;;;;5035030;28;20131;-75
2023/03/21 13:07:58;;;;;;;17.10;9.30;;;;;;;;;;5052984;28;20122;-75
2023/03/21 13:10:24;;;;;;;15.73;8.85;;;;;;;;;;5052769;28;20053;-75
2023/03/21 13:12:50;;;;;;;17.35;8.98;;;;;;;;;;5018401;28;20119;-75
2023/03/21 13:15:37;;;;;;;17.65;9.23;;;;;;;;;;5053099;28;20116;-75
2023/03/21 13:18:15;;;;;;;16.45;8.80;;;;;;;;;;5052781;28;20049;-75
2023/03/21 13:20:55;;;;;;;14.05;8.02;;;;;;;;;;5053017;28;20450;-75
2023/03/21 13:23:23;;;;;;;16.08;8.65;;;;;;;;;;5034855;28;20448;-76
2023/03/21 13:25:50;;;;;;;21.40;8.90;;;;;;;;;;5034901;28;20047;-75
2023/03/21 13:28:25;;;;;;;13.65;7.80;;;;;;;;;;5034754;28;20045;-75
2023/03/21 13:30:51;;;;;;;13.55;7.47;;;;;;;;;;5052479;28;20052;-75
2023/03/21 13:33:29;;;;;;;11.93;7.80;;;;;;;;;;5032712;28;20049;-76
2023/03/21 13:36:04;;;;;;;18.45;8.55;;;;;;;;;;5052801;28;20079;-75
2023/03/21 13:38:31;;;;;;;12.55;7.88;;;;;;;;;;5034672;28;20067;-75
2023/03/21 13:41:08;;;;;;;15.82;7.97;;;;;;;;;;5034481;28;20493;-74
2023/03/21 13:43:34;;;;;;;15.93;8.35;;;;;;;;;;5034436;28;20053;-75
2023/03/21 13:46:06;;;;;;;14.13;8.50;;;;;;;;;;5034378;28;20041;-74
2023/03/21 13:48:41;;;;;;;15.75;7.97;;;;;;;;;;5052612;28;20076;-75
2023/03/21 13:51:07;;;;;;;15.55;8.27;;;;;;;;;;5034325;28;20045;-75
2023/03/21 13:53:42;;;;;;;16.20;8.25;;;;;;;;;;5052155;28;20064;-75
2023/03/21 13:56:11;;;;;;;16.27;8.60;;;;;;;;;;5034641;28;20127;-75
2023/03/21 13:58:43;;;;;;;14.18;8.82;;;;;;;;;;5052565;28;20041;-75
2023/03/21 14:01:19;;;;;;;16.73;9.23;;;;;;;;;;5052141;28;20041;-75
2023/03/21 14:03:46;;;;;;;14.52;7.97;;;;;;;;;;5051976;28;20080;-75
2023/03/21 14:06:12;;;;;;;15.02;8.48;;;;;;;;;;5034336;28;20037;-75
2023/03/21 14:08:40;;;;;;;14.82;8.02;;;;;;;;;;5030789;28;20520;-75
2023/03/21 14:11:09;;;;;;;16.38;8.43;;;;;;;;;;5030849;28;20058;-75
2023/03/21 14:13:35;;;;;;;15.07;8.25;;;;;;;;;;5030930;28;20120;-75
2023/03/21 14:16:20;;;;;;;15.85;8.70;;;;;;;;;;5032112;28;20048;-74
2023/03/21 14:18:55;;;;;;;14.03;8.93;;;;;;;;;;5029867;28;20049;-76
2023/03/21 14:21:22;;;;;;;15.30;8.98;;;;;;;;;;5028652;28;20042;-75
2023/03/21 14:23:56;;;;;;;12.45;8.02;;;;;;;;;;5014177;28;20114;-75
2023/03/21 14:26:22;;;;;;;14.65;8.38;;;;;;;;;;5031113;28;20251;-75
2023/03/21 14:28:50;;;;;;;14.20;8.55;;;;;;;;;;5031087;28;20528;-76
2023/03/21 14:31:17;;;;;;;13.35;7.68;;;;;;;;;;5034115;28;20501;-75